sensor_id;sensor_type;location;lat;lon;timestamp;temperature;humidity
51765;DHT22;37835;53.256;6.456;2022-07-23T00:01:18;14.20;99.90
51765;DHT22;37835;53.256;6.456;2022-07-23T00:03:44;14.20;99.90
51765;DHT22;37835;53.256;6.456;2022-07-23T00:06:10;14.20;99.90
51765;DHT22;37835;53.256;6.456;2022-07-23T00:08:36;14.20;99.90
51765;DHT22;37835;53.256;6.456;2022-07-23T00:11:02;14.20;99.90
51765;DHT22;37835;53.256;6.456;2022-07-23T00:13:27;14.20;99.90
51765;DHT22;37835;53.256;6.456;2022-07-23T00:15:53;14.20;99.90
51765;DHT22;37835;53.256;6.456;2022-07-23T00:18:19;14.10;99.90
51765;DHT22;37835;53.256;6.456;2022-07-23T00:20:44;14.10;99.90
51765;DHT22;37835;53.256;6.456;2022-07-23T00:23:10;14.10;99.90
51765;DHT22;37835;53.256;6.456;2022-07-23T00:25:36;14.10;99.90
51765;DHT22;37835;53.256;6.456;2022-07-23T00:28:02;14.10;99.90
51765;DHT22;37835;53.256;6.456;2022-07-23T00:30:29;14.10;99.90
51765;DHT22;37835;53.256;6.456;2022-07-23T00:32:56;14.10;99.90
51765;DHT22;37835;53.256;6.456;2022-07-23T00:35:25;14.10;99.90
51765;DHT22;37835;53.256;6.456;2022-07-23T00:37:50;14.10;99.90
51765;DHT22;37835;53.256;6.456;2022-07-23T00:40:16;14.10;99.90
51765;DHT22;37835;53.256;6.456;2022-07-23T00:42:42;14.10;99.90
51765;DHT22;37835;53.256;6.456;2022-07-23T00:45:08;14.00;99.90
51765;DHT22;37835;53.256;6.456;2022-07-23T00:47:34;14.00;99.90
51765;DHT22;37835;53.256;6.456;2022-07-23T00:50:00;14.00;99.90
51765;DHT22;37835;53.256;6.456;2022-07-23T00:52:25;14.00;99.90
51765;DHT22;37835;53.256;6.456;2022-07-23T00:54:51;14.00;99.90
51765;DHT22;37835;53.256;6.456;2022-07-23T00:57:17;14.00;99.90
51765;DHT22;37835;53.256;6.456;2022-07-23T00:59:43;14.00;99.90
51765;DHT22;37835;53.256;6.456;2022-07-23T01:02:09;14.00;99.90
51765;DHT22;37835;53.256;6.456;2022-07-23T01:04:35;14.00;99.90
51765;DHT22;37835;53.256;6.456;2022-07-23T01:07:01;14.00;99.90
51765;DHT22;37835;53.256;6.456;2022-07-23T01:09:27;14.00;99.90
51765;DHT22;37835;53.256;6.456;2022-07-23T01:11:54;14.00;99.90
51765;DHT22;37835;53.256;6.456;2022-07-23T01:14:21;14.00;99.90
51765;DHT22;37835;53.256;6.456;2022-07-23T01:16:48;14.00;99.90
51765;DHT22;37835;53.256;6.456;2022-07-23T01:19:14;14.00;99.90
51765;DHT22;37835;53.256;6.456;2022-07-23T01:21:48;14.00;99.90
51765;DHT22;37835;53.256;6.456;2022-07-23T01:24:15;13.90;99.90
51765;DHT22;37835;53.256;6.456;2022-07-23T01:26:45;13.90;99.90
51765;DHT22;37835;53.256;6.456;2022-07-23T01:29:11;14.00;99.90
51765;DHT22;37835;53.256;6.456;2022-07-23T01:31:37;14.00;99.90
51765;DHT22;37835;53.256;6.456;2022-07-23T01:34:02;13.90;99.90
51765;DHT22;37835;53.256;6.456;2022-07-23T01:36:29;13.90;99.90
51765;DHT22;37835;53.256;6.456;2022-07-23T01:38:55;13.90;99.90
51765;DHT22;37835;53.256;6.456;2022-07-23T01:41:20;13.90;99.90
51765;DHT22;37835;53.256;6.456;2022-07-23T01:43:46;13.90;99.90
51765;DHT22;37835;53.256;6.456;2022-07-23T01:46:12;13.90;99.90
51765;DHT22;37835;53.256;6.456;2022-07-23T01:48:37;13.90;99.90
51765;DHT22;37835;53.256;6.456;2022-07-23T01:51:03;13.90;99.90
51765;DHT22;37835;53.256;6.456;2022-07-23T01:53:29;13.90;99.90
51765;DHT22;37835;53.256;6.456;2022-07-23T01:55:57;13.90;99.90
51765;DHT22;37835;53.256;6.456;2022-07-23T01:58:23;13.90;99.90
51765;DHT22;37835;53.256;6.456;2022-07-23T02:00:48;13.80;99.90
51765;DHT22;37835;53.256;6.456;2022-07-23T02:03:14;13.90;99.90
51765;DHT22;37835;53.256;6.456;2022-07-23T02:05:40;13.80;99.90
51765;DHT22;37835;53.256;6.456;2022-07-23T02:08:05;13.80;99.90
51765;DHT22;37835;53.256;6.456;2022-07-23T02:10:31;13.80;99.90
51765;DHT22;37835;53.256;6.456;2022-07-23T02:12:56;13.90;99.90
51765;DHT22;37835;53.256;6.456;2022-07-23T02:15:22;13.90;99.90
51765;DHT22;37835;53.256;6.456;2022-07-23T02:17:48;13.80;99.90
51765;DHT22;37835;53.256;6.456;2022-07-23T02:20:13;13.80;99.90
51765;DHT22;37835;53.256;6.456;2022-07-23T02:22:39;13.80;99.90
51765;DHT22;37835;53.256;6.456;2022-07-23T02:25:06;13.80;99.90
51765;DHT22;37835;53.256;6.456;2022-07-23T02:27:32;13.90;99.90
51765;DHT22;37835;53.256;6.456;2022-07-23T02:29:58;13.90;99.90
51765;DHT22;37835;53.256;6.456;2022-07-23T02:32:24;13.90;99.90
51765;DHT22;37835;53.256;6.456;2022-07-23T02:34:49;14.00;99.90
51765;DHT22;37835;53.256;6.456;2022-07-23T02:37:15;14.00;99.90
51765;DHT22;37835;53.256;6.456;2022-07-23T02:39:41;14.00;99.90
51765;DHT22;37835;53.256;6.456;2022-07-23T02:42:06;14.00;99.90
51765;DHT22;37835;53.256;6.456;2022-07-23T02:44:32;13.60;99.90
51765;DHT22;37835;53.256;6.456;2022-07-23T02:46:58;14.00;99.90
51765;DHT22;37835;53.256;6.456;2022-07-23T02:49:24;14.10;99.90
51765;DHT22;37835;53.256;6.456;2022-07-23T02:51:49;14.10;99.90
51765;DHT22;37835;53.256;6.456;2022-07-23T02:54:15;14.10;99.90
51765;DHT22;37835;53.256;6.456;2022-07-23T02:56:41;14.10;99.90
51765;DHT22;37835;53.256;6.456;2022-07-23T02:59:07;14.10;99.90
51765;DHT22;37835;53.256;6.456;2022-07-23T03:01:32;14.10;99.90
51765;DHT22;37835;53.256;6.456;2022-07-23T03:03:58;14.10;99.90
51765;DHT22;37835;53.256;6.456;2022-07-23T03:06:24;14.10;99.90
51765;DHT22;37835;53.256;6.456;2022-07-23T03:08:49;14.20;99.90
51765;DHT22;37835;53.256;6.456;2022-07-23T03:11:15;14.20;99.90
51765;DHT22;37835;53.256;6.456;2022-07-23T03:13:41;14.10;99.90
51765;DHT22;37835;53.256;6.456;2022-07-23T03:16:07;14.20;99.90
51765;DHT22;37835;53.256;6.456;2022-07-23T03:18:33;14.20;99.90
51765;DHT22;37835;53.256;6.456;2022-07-23T03:20:59;14.20;99.90
51765;DHT22;37835;53.256;6.456;2022-07-23T03:23:25;14.20;99.90
51765;DHT22;37835;53.256;6.456;2022-07-23T03:25:50;14.20;99.90
51765;DHT22;37835;53.256;6.456;2022-07-23T03:28:17;14.20;99.90
51765;DHT22;37835;53.256;6.456;2022-07-23T03:30:43;14.10;99.90
51765;DHT22;37835;53.256;6.456;2022-07-23T03:33:18;14.20;99.90
51765;DHT22;37835;53.256;6.456;2022-07-23T03:35:45;14.20;99.90
51765;DHT22;37835;53.256;6.456;2022-07-23T03:38:11;14.20;99.90
51765;DHT22;37835;53.256;6.456;2022-07-23T03:40:37;14.20;99.90
51765;DHT22;37835;53.256;6.456;2022-07-23T03:43:03;14.20;99.90
51765;DHT22;37835;53.256;6.456;2022-07-23T03:45:28;14.20;99.90
51765;DHT22;37835;53.256;6.456;2022-07-23T03:47:54;14.20;99.90
51765;DHT22;37835;53.256;6.456;2022-07-23T03:50:21;14.20;99.90
51765;DHT22;37835;53.256;6.456;2022-07-23T03:52:47;14.20;99.90
51765;DHT22;37835;53.256;6.456;2022-07-23T03:55:12;14.20;99.90
51765;DHT22;37835;53.256;6.456;2022-07-23T03:57:38;14.20;99.90
51765;DHT22;37835;53.256;6.456;2022-07-23T04:00:06;14.20;99.90
51765;DHT22;37835;53.256;6.456;2022-07-23T04:02:33;14.20;99.90
51765;DHT22;37835;53.256;6.456;2022-07-23T04:04:59;14.20;99.90
51765;DHT22;37835;53.256;6.456;2022-07-23T04:07:25;14.20;99.90
51765;DHT22;37835;53.256;6.456;2022-07-23T04:09:51;14.20;99.90
51765;DHT22;37835;53.256;6.456;2022-07-23T04:12:16;14.20;99.90
51765;DHT22;37835;53.256;6.456;2022-07-23T04:14:42;14.30;99.90
51765;DHT22;37835;53.256;6.456;2022-07-23T04:17:08;14.20;99.90
51765;DHT22;37835;53.256;6.456;2022-07-23T04:19:33;14.20;99.90
51765;DHT22;37835;53.256;6.456;2022-07-23T04:22:00;14.20;99.90
51765;DHT22;37835;53.256;6.456;2022-07-23T04:24:26;14.30;99.90
51765;DHT22;37835;53.256;6.456;2022-07-23T04:26:53;14.30;99.90
51765;DHT22;37835;53.256;6.456;2022-07-23T04:29:18;14.30;99.90
51765;DHT22;37835;53.256;6.456;2022-07-23T04:31:44;14.30;99.90
51765;DHT22;37835;53.256;6.456;2022-07-23T04:34:09;14.30;99.90
51765;DHT22;37835;53.256;6.456;2022-07-23T04:36:35;14.30;99.90
51765;DHT22;37835;53.256;6.456;2022-07-23T04:39:00;14.30;99.90
51765;DHT22;37835;53.256;6.456;2022-07-23T04:41:26;14.30;99.90
51765;DHT22;37835;53.256;6.456;2022-07-23T04:43:52;14.30;99.90
51765;DHT22;37835;53.256;6.456;2022-07-23T04:46:18;14.30;99.90
51765;DHT22;37835;53.256;6.456;2022-07-23T04:48:43;14.30;99.90
51765;DHT22;37835;53.256;6.456;2022-07-23T04:51:09;14.40;99.90
51765;DHT22;37835;53.256;6.456;2022-07-23T04:53:37;14.40;99.90
51765;DHT22;37835;53.256;6.456;2022-07-23T04:56:02;14.40;99.90
51765;DHT22;37835;53.256;6.456;2022-07-23T04:58:28;14.50;99.90
51765;DHT22;37835;53.256;6.456;2022-07-23T05:00:54;14.50;99.90
51765;DHT22;37835;53.256;6.456;2022-07-23T05:03:19;14.50;99.90
51765;DHT22;37835;53.256;6.456;2022-07-23T05:05:45;14.60;99.90
51765;DHT22;37835;53.256;6.456;2022-07-23T05:08:10;14.60;99.90
51765;DHT22;37835;53.256;6.456;2022-07-23T05:10:36;14.60;99.90
51765;DHT22;37835;53.256;6.456;2022-07-23T05:13:01;14.60;99.90
51765;DHT22;37835;53.256;6.456;2022-07-23T05:15:27;14.60;99.90
51765;DHT22;37835;53.256;6.456;2022-07-23T05:17:53;14.60;99.90
51765;DHT22;37835;53.256;6.456;2022-07-23T05:20:18;14.70;99.90
51765;DHT22;37835;53.256;6.456;2022-07-23T05:22:44;14.70;99.90
51765;DHT22;37835;53.256;6.456;2022-07-23T05:25:09;14.60;99.90
51765;DHT22;37835;53.256;6.456;2022-07-23T05:27:35;14.60;99.90
51765;DHT22;37835;53.256;6.456;2022-07-23T05:30:01;14.60;99.90
51765;DHT22;37835;53.256;6.456;2022-07-23T05:32:26;14.60;99.90
51765;DHT22;37835;53.256;6.456;2022-07-23T05:34:52;14.60;99.90
51765;DHT22;37835;53.256;6.456;2022-07-23T05:37:18;14.70;99.90
51765;DHT22;37835;53.256;6.456;2022-07-23T05:39:43;14.70;99.90
51765;DHT22;37835;53.256;6.456;2022-07-23T05:42:09;14.80;99.90
51765;DHT22;37835;53.256;6.456;2022-07-23T05:44:34;14.80;99.90
51765;DHT22;37835;53.256;6.456;2022-07-23T05:47:01;14.80;99.90
51765;DHT22;37835;53.256;6.456;2022-07-23T05:49:26;14.90;99.90
51765;DHT22;37835;53.256;6.456;2022-07-23T05:51:52;14.30;99.90
51765;DHT22;37835;53.256;6.456;2022-07-23T05:54:18;14.90;99.90
51765;DHT22;37835;53.256;6.456;2022-07-23T05:56:43;14.90;99.90
51765;DHT22;37835;53.256;6.456;2022-07-23T05:59:09;14.90;99.90
51765;DHT22;37835;53.256;6.456;2022-07-23T06:01:34;15.00;99.90
51765;DHT22;37835;53.256;6.456;2022-07-23T06:04:00;14.90;99.90
51765;DHT22;37835;53.256;6.456;2022-07-23T06:06:25;15.00;99.90
51765;DHT22;37835;53.256;6.456;2022-07-23T06:08:51;15.00;99.90
51765;DHT22;37835;53.256;6.456;2022-07-23T06:11:16;15.10;99.90
51765;DHT22;37835;53.256;6.456;2022-07-23T06:13:42;15.10;99.90
51765;DHT22;37835;53.256;6.456;2022-07-23T06:16:08;15.10;99.90
51765;DHT22;37835;53.256;6.456;2022-07-23T06:18:33;15.20;99.90
51765;DHT22;37835;53.256;6.456;2022-07-23T06:20:59;15.20;99.90
51765;DHT22;37835;53.256;6.456;2022-07-23T06:23:25;15.20;99.90
51765;DHT22;37835;53.256;6.456;2022-07-23T06:25:50;15.20;99.90
51765;DHT22;37835;53.256;6.456;2022-07-23T06:28:16;15.30;99.90
51765;DHT22;37835;53.256;6.456;2022-07-23T06:30:41;15.30;99.90
51765;DHT22;37835;53.256;6.456;2022-07-23T06:33:07;15.30;99.90
51765;DHT22;37835;53.256;6.456;2022-07-23T06:35:33;15.40;99.90
51765;DHT22;37835;53.256;6.456;2022-07-23T06:37:59;15.40;99.90
51765;DHT22;37835;53.256;6.456;2022-07-23T06:40:24;15.50;99.90
51765;DHT22;37835;53.256;6.456;2022-07-23T06:42:50;15.50;99.90
51765;DHT22;37835;53.256;6.456;2022-07-23T06:45:16;15.60;99.90
51765;DHT22;37835;53.256;6.456;2022-07-23T06:47:42;15.60;99.90
51765;DHT22;37835;53.256;6.456;2022-07-23T06:50:08;15.70;99.90
51765;DHT22;37835;53.256;6.456;2022-07-23T06:52:34;15.80;99.90
51765;DHT22;37835;53.256;6.456;2022-07-23T06:54:59;15.90;99.90
51765;DHT22;37835;53.256;6.456;2022-07-23T06:57:25;16.00;99.90
51765;DHT22;37835;53.256;6.456;2022-07-23T06:59:51;16.10;99.90
51765;DHT22;37835;53.256;6.456;2022-07-23T07:02:17;16.20;99.90
51765;DHT22;37835;53.256;6.456;2022-07-23T07:04:42;16.30;99.90
51765;DHT22;37835;53.256;6.456;2022-07-23T07:07:08;16.30;99.90
51765;DHT22;37835;53.256;6.456;2022-07-23T07:09:34;16.40;99.90
51765;DHT22;37835;53.256;6.456;2022-07-23T07:12:00;16.50;99.90
51765;DHT22;37835;53.256;6.456;2022-07-23T07:14:25;16.60;99.90
51765;DHT22;37835;53.256;6.456;2022-07-23T07:16:51;16.70;99.90
51765;DHT22;37835;53.256;6.456;2022-07-23T07:19:16;16.70;99.90
51765;DHT22;37835;53.256;6.456;2022-07-23T07:21:42;16.70;99.90
51765;DHT22;37835;53.256;6.456;2022-07-23T07:24:08;16.70;99.90
51765;DHT22;37835;53.256;6.456;2022-07-23T07:26:33;16.90;99.90
51765;DHT22;37835;53.256;6.456;2022-07-23T07:28:59;16.90;99.90
51765;DHT22;37835;53.256;6.456;2022-07-23T07:31:25;17.00;99.90
51765;DHT22;37835;53.256;6.456;2022-07-23T07:33:50;17.10;99.90
51765;DHT22;37835;53.256;6.456;2022-07-23T07:36:16;17.10;99.90
51765;DHT22;37835;53.256;6.456;2022-07-23T07:38:41;17.10;99.90
51765;DHT22;37835;53.256;6.456;2022-07-23T07:41:07;17.20;99.90
51765;DHT22;37835;53.256;6.456;2022-07-23T07:43:36;17.20;99.90
51765;DHT22;37835;53.256;6.456;2022-07-23T07:46:02;17.20;99.90
51765;DHT22;37835;53.256;6.456;2022-07-23T07:48:28;17.20;99.90
51765;DHT22;37835;53.256;6.456;2022-07-23T07:50:54;17.20;99.90
51765;DHT22;37835;53.256;6.456;2022-07-23T07:53:19;17.30;99.90
51765;DHT22;37835;53.256;6.456;2022-07-23T07:55:45;17.30;99.90
51765;DHT22;37835;53.256;6.456;2022-07-23T07:58:11;17.30;99.90
51765;DHT22;37835;53.256;6.456;2022-07-23T08:00:36;17.40;99.90
51765;DHT22;37835;53.256;6.456;2022-07-23T08:03:02;17.40;99.90
51765;DHT22;37835;53.256;6.456;2022-07-23T08:05:29;17.40;99.90
51765;DHT22;37835;53.256;6.456;2022-07-23T08:07:56;17.40;99.90
51765;DHT22;37835;53.256;6.456;2022-07-23T08:10:23;17.50;99.90
51765;DHT22;37835;53.256;6.456;2022-07-23T08:12:51;17.60;99.90
51765;DHT22;37835;53.256;6.456;2022-07-23T08:15:19;17.70;99.90
51765;DHT22;37835;53.256;6.456;2022-07-23T08:17:46;17.70;99.90
51765;DHT22;37835;53.256;6.456;2022-07-23T08:20:13;17.80;99.90
51765;DHT22;37835;53.256;6.456;2022-07-23T08:22:47;17.80;99.90
51765;DHT22;37835;53.256;6.456;2022-07-23T08:25:14;17.90;99.90
51765;DHT22;37835;53.256;6.456;2022-07-23T08:27:39;17.90;99.90
51765;DHT22;37835;53.256;6.456;2022-07-23T08:30:06;17.90;99.90
51765;DHT22;37835;53.256;6.456;2022-07-23T08:32:32;17.90;99.90
51765;DHT22;37835;53.256;6.456;2022-07-23T08:34:57;17.90;99.90
51765;DHT22;37835;53.256;6.456;2022-07-23T08:37:23;17.90;99.90
51765;DHT22;37835;53.256;6.456;2022-07-23T08:39:48;17.90;99.90
51765;DHT22;37835;53.256;6.456;2022-07-23T08:42:14;17.90;99.90
51765;DHT22;37835;53.256;6.456;2022-07-23T08:44:45;18.00;99.90
51765;DHT22;37835;53.256;6.456;2022-07-23T08:47:12;18.00;99.90
51765;DHT22;37835;53.256;6.456;2022-07-23T08:49:38;18.10;99.90
51765;DHT22;37835;53.256;6.456;2022-07-23T08:52:06;18.10;99.90
51765;DHT22;37835;53.256;6.456;2022-07-23T08:54:32;18.20;99.90
51765;DHT22;37835;53.256;6.456;2022-07-23T08:56:59;18.10;99.90
51765;DHT22;37835;53.256;6.456;2022-07-23T08:59:25;18.10;99.90
51765;DHT22;37835;53.256;6.456;2022-07-23T09:01:52;18.10;99.90
51765;DHT22;37835;53.256;6.456;2022-07-23T09:04:17;18.10;99.90
51765;DHT22;37835;53.256;6.456;2022-07-23T09:06:43;18.20;99.90
51765;DHT22;37835;53.256;6.456;2022-07-23T09:09:20;18.20;99.90
51765;DHT22;37835;53.256;6.456;2022-07-23T09:11:47;18.20;99.90
51765;DHT22;37835;53.256;6.456;2022-07-23T09:14:13;18.10;99.90
51765;DHT22;37835;53.256;6.456;2022-07-23T09:16:38;18.20;99.90
51765;DHT22;37835;53.256;6.456;2022-07-23T09:19:06;18.20;99.90
51765;DHT22;37835;53.256;6.456;2022-07-23T09:21:37;18.30;99.90
51765;DHT22;37835;53.256;6.456;2022-07-23T09:26:32;18.30;99.90
51765;DHT22;37835;53.256;6.456;2022-07-23T09:29:12;18.30;99.90
51765;DHT22;37835;53.256;6.456;2022-07-23T09:34:25;18.40;99.90
51765;DHT22;37835;53.256;6.456;2022-07-23T09:40:07;18.50;99.90
51765;DHT22;37835;53.256;6.456;2022-07-23T09:42:33;18.50;99.90
51765;DHT22;37835;53.256;6.456;2022-07-23T09:44:59;18.60;99.90
51765;DHT22;37835;53.256;6.456;2022-07-23T09:47:29;18.60;99.90
51765;DHT22;37835;53.256;6.456;2022-07-23T09:50:04;18.60;99.90
51765;DHT22;37835;53.256;6.456;2022-07-23T09:55:10;18.60;99.90
51765;DHT22;37835;53.256;6.456;2022-07-23T09:57:35;18.60;99.90
51765;DHT22;37835;53.256;6.456;2022-07-23T10:00:05;18.60;99.90
51765;DHT22;37835;53.256;6.456;2022-07-23T10:02:32;18.60;99.90
51765;DHT22;37835;53.256;6.456;2022-07-23T10:05:00;18.50;99.90
51765;DHT22;37835;53.256;6.456;2022-07-23T10:07:27;18.50;99.90
51765;DHT22;37835;53.256;6.456;2022-07-23T10:09:55;18.50;99.90
51765;DHT22;37835;53.256;6.456;2022-07-23T10:12:22;18.50;99.90
51765;DHT22;37835;53.256;6.456;2022-07-23T10:15:06;18.50;99.90
51765;DHT22;37835;53.256;6.456;2022-07-23T10:17:34;18.50;99.90
51765;DHT22;37835;53.256;6.456;2022-07-23T10:20:00;18.50;99.90
51765;DHT22;37835;53.256;6.456;2022-07-23T10:22:30;18.50;99.90
51765;DHT22;37835;53.256;6.456;2022-07-23T10:35:53;18.60;99.90
51765;DHT22;37835;53.256;6.456;2022-07-23T10:38:28;18.70;99.90
51765;DHT22;37835;53.256;6.456;2022-07-23T10:41:01;18.70;99.90
51765;DHT22;37835;53.256;6.456;2022-07-23T10:43:28;18.80;99.90
51765;DHT22;37835;53.256;6.456;2022-07-23T10:45:54;18.80;99.90
51765;DHT22;37835;53.256;6.456;2022-07-23T10:48:25;18.90;99.90
51765;DHT22;37835;53.256;6.456;2022-07-23T10:51:24;18.90;99.90
51765;DHT22;37835;53.256;6.456;2022-07-23T10:53:57;18.90;99.90
51765;DHT22;37835;53.256;6.456;2022-07-23T10:59:16;19.10;99.90
51765;DHT22;37835;53.256;6.456;2022-07-23T11:01:42;19.10;99.90
51765;DHT22;37835;53.256;6.456;2022-07-23T11:04:08;19.10;99.90
51765;DHT22;37835;53.256;6.456;2022-07-23T11:09:41;19.20;99.90
51765;DHT22;37835;53.256;6.456;2022-07-23T11:15:01;19.20;99.90
51765;DHT22;37835;53.256;6.456;2022-07-23T11:17:27;19.20;99.90
51765;DHT22;37835;53.256;6.456;2022-07-23T11:25:31;19.40;99.90
51765;DHT22;37835;53.256;6.456;2022-07-23T11:28:17;19.40;99.90
51765;DHT22;37835;53.256;6.456;2022-07-23T11:30:47;19.40;99.90
51765;DHT22;37835;53.256;6.456;2022-07-23T11:38:07;19.60;99.90
51765;DHT22;37835;53.256;6.456;2022-07-23T11:40:34;19.60;99.90
51765;DHT22;37835;53.256;6.456;2022-07-23T11:43:02;19.70;99.90
51765;DHT22;37835;53.256;6.456;2022-07-23T11:45:41;19.80;99.90
51765;DHT22;37835;53.256;6.456;2022-07-23T11:48:09;19.80;99.90
51765;DHT22;37835;53.256;6.456;2022-07-23T11:50:36;19.90;99.90
51765;DHT22;37835;53.256;6.456;2022-07-23T11:53:03;20.00;99.90
51765;DHT22;37835;53.256;6.456;2022-07-23T11:55:29;20.00;99.90
51765;DHT22;37835;53.256;6.456;2022-07-23T11:57:55;20.10;99.90
51765;DHT22;37835;53.256;6.456;2022-07-23T12:00:25;20.10;99.90
51765;DHT22;37835;53.256;6.456;2022-07-23T12:02:56;20.20;99.90
51765;DHT22;37835;53.256;6.456;2022-07-23T12:05:33;20.20;99.90
51765;DHT22;37835;53.256;6.456;2022-07-23T12:08:00;20.30;99.90
51765;DHT22;37835;53.256;6.456;2022-07-23T12:10:27;20.30;99.90
51765;DHT22;37835;53.256;6.456;2022-07-23T12:12:55;20.30;99.90
51765;DHT22;37835;53.256;6.456;2022-07-23T12:17:49;20.50;99.90
51765;DHT22;37835;53.256;6.456;2022-07-23T12:20:24;20.50;99.90
51765;DHT22;37835;53.256;6.456;2022-07-23T12:22:52;20.60;99.90
51765;DHT22;37835;53.256;6.456;2022-07-23T12:25:21;20.60;99.90
51765;DHT22;37835;53.256;6.456;2022-07-23T12:28:19;20.60;99.90
51765;DHT22;37835;53.256;6.456;2022-07-23T12:30:45;20.70;99.90
51765;DHT22;37835;53.256;6.456;2022-07-23T12:33:13;20.80;99.90
51765;DHT22;37835;53.256;6.456;2022-07-23T12:35:44;20.90;99.90
51765;DHT22;37835;53.256;6.456;2022-07-23T12:38:20;20.90;99.90
51765;DHT22;37835;53.256;6.456;2022-07-23T12:40:48;21.00;99.90
51765;DHT22;37835;53.256;6.456;2022-07-23T12:48:35;21.30;99.90
51765;DHT22;37835;53.256;6.456;2022-07-23T12:51:06;21.30;99.90
51765;DHT22;37835;53.256;6.456;2022-07-23T12:53:49;21.30;99.90
51765;DHT22;37835;53.256;6.456;2022-07-23T12:58:46;21.50;99.90
51765;DHT22;37835;53.256;6.456;2022-07-23T13:01:22;21.50;99.90
51765;DHT22;37835;53.256;6.456;2022-07-23T13:04:03;21.40;99.90
51765;DHT22;37835;53.256;6.456;2022-07-23T13:06:34;21.40;99.90
51765;DHT22;37835;53.256;6.456;2022-07-23T13:09:01;21.30;99.90
51765;DHT22;37835;53.256;6.456;2022-07-23T13:11:27;21.30;99.90
51765;DHT22;37835;53.256;6.456;2022-07-23T13:16:19;21.50;99.90
51765;DHT22;37835;53.256;6.456;2022-07-23T13:18:45;21.50;99.90
51765;DHT22;37835;53.256;6.456;2022-07-23T13:21:11;21.50;99.90
51765;DHT22;37835;53.256;6.456;2022-07-23T13:23:37;21.50;99.90
51765;DHT22;37835;53.256;6.456;2022-07-23T13:26:03;21.40;99.90
51765;DHT22;37835;53.256;6.456;2022-07-23T13:28:29;21.50;99.90
51765;DHT22;37835;53.256;6.456;2022-07-23T13:30:55;21.60;99.90
51765;DHT22;37835;53.256;6.456;2022-07-23T13:33:23;21.60;99.90
51765;DHT22;37835;53.256;6.456;2022-07-23T13:35:50;21.60;99.90
51765;DHT22;37835;53.256;6.456;2022-07-23T13:38:17;21.60;99.90
51765;DHT22;37835;53.256;6.456;2022-07-23T13:40:45;21.60;99.90
51765;DHT22;37835;53.256;6.456;2022-07-23T13:43:12;21.70;99.90
51765;DHT22;37835;53.256;6.456;2022-07-23T13:45:40;21.80;99.90
51765;DHT22;37835;53.256;6.456;2022-07-23T13:48:08;21.80;99.90
51765;DHT22;37835;53.256;6.456;2022-07-23T13:50:35;21.80;99.90
51765;DHT22;37835;53.256;6.456;2022-07-23T13:53:05;21.90;99.90
51765;DHT22;37835;53.256;6.456;2022-07-23T13:55:32;22.10;99.90
51765;DHT22;37835;53.256;6.456;2022-07-23T13:57:58;22.10;99.90
51765;DHT22;37835;53.256;6.456;2022-07-23T14:00:26;22.10;99.90
51765;DHT22;37835;53.256;6.456;2022-07-23T14:02:52;22.10;99.90
51765;DHT22;37835;53.256;6.456;2022-07-23T14:05:18;22.10;99.90
51765;DHT22;37835;53.256;6.456;2022-07-23T14:07:44;22.20;99.90
51765;DHT22;37835;53.256;6.456;2022-07-23T14:10:12;22.20;99.90
51765;DHT22;37835;53.256;6.456;2022-07-23T14:12:37;22.20;99.90
51765;DHT22;37835;53.256;6.456;2022-07-23T14:15:05;22.20;99.90
51765;DHT22;37835;53.256;6.456;2022-07-23T14:17:31;22.30;99.90
51765;DHT22;37835;53.256;6.456;2022-07-23T14:19:58;22.40;99.90
51765;DHT22;37835;53.256;6.456;2022-07-23T14:22:24;22.40;99.90
51765;DHT22;37835;53.256;6.456;2022-07-23T14:24:50;22.60;99.90
51765;DHT22;37835;53.256;6.456;2022-07-23T14:27:15;22.70;99.90
51765;DHT22;37835;53.256;6.456;2022-07-23T14:29:41;22.80;99.90
51765;DHT22;37835;53.256;6.456;2022-07-23T14:32:07;22.90;99.90
51765;DHT22;37835;53.256;6.456;2022-07-23T14:34:33;23.00;99.90
51765;DHT22;37835;53.256;6.456;2022-07-23T14:36:59;23.00;99.90
51765;DHT22;37835;53.256;6.456;2022-07-23T14:39:25;23.00;99.90
51765;DHT22;37835;53.256;6.456;2022-07-23T14:41:51;23.00;99.90
51765;DHT22;37835;53.256;6.456;2022-07-23T14:44:16;22.90;99.90
51765;DHT22;37835;53.256;6.456;2022-07-23T14:46:42;22.90;99.90
51765;DHT22;37835;53.256;6.456;2022-07-23T14:49:07;22.80;99.90
51765;DHT22;37835;53.256;6.456;2022-07-23T14:51:33;22.80;99.90
51765;DHT22;37835;53.256;6.456;2022-07-23T14:53:59;22.80;99.90
51765;DHT22;37835;53.256;6.456;2022-07-23T14:56:24;22.80;99.90
51765;DHT22;37835;53.256;6.456;2022-07-23T14:58:50;22.90;99.90
51765;DHT22;37835;53.256;6.456;2022-07-23T15:01:16;22.90;99.90
51765;DHT22;37835;53.256;6.456;2022-07-23T15:03:41;23.00;99.90
51765;DHT22;37835;53.256;6.456;2022-07-23T15:06:07;23.00;99.90
51765;DHT22;37835;53.256;6.456;2022-07-23T15:08:33;23.00;99.90
51765;DHT22;37835;53.256;6.456;2022-07-23T15:10:58;23.00;99.90
51765;DHT22;37835;53.256;6.456;2022-07-23T15:13:24;23.00;99.90
51765;DHT22;37835;53.256;6.456;2022-07-23T15:15:50;23.00;99.90
51765;DHT22;37835;53.256;6.456;2022-07-23T15:18:15;23.10;99.90
51765;DHT22;37835;53.256;6.456;2022-07-23T15:20:41;23.10;99.90
51765;DHT22;37835;53.256;6.456;2022-07-23T15:23:07;23.20;99.90
51765;DHT22;37835;53.256;6.456;2022-07-23T15:25:33;23.20;99.90
51765;DHT22;37835;53.256;6.456;2022-07-23T15:27:59;23.30;99.90
51765;DHT22;37835;53.256;6.456;2022-07-23T15:30:25;23.30;99.90
51765;DHT22;37835;53.256;6.456;2022-07-23T15:32:51;23.30;99.90
51765;DHT22;37835;53.256;6.456;2022-07-23T15:35:17;23.20;99.90
51765;DHT22;37835;53.256;6.456;2022-07-23T15:37:43;23.30;99.90
51765;DHT22;37835;53.256;6.456;2022-07-23T15:40:09;23.30;99.90
51765;DHT22;37835;53.256;6.456;2022-07-23T15:42:35;23.20;99.90
51765;DHT22;37835;53.256;6.456;2022-07-23T15:45:01;23.30;99.90
51765;DHT22;37835;53.256;6.456;2022-07-23T15:47:26;23.30;99.90
51765;DHT22;37835;53.256;6.456;2022-07-23T15:49:52;23.20;99.90
51765;DHT22;37835;53.256;6.456;2022-07-23T15:52:17;23.30;99.90
51765;DHT22;37835;53.256;6.456;2022-07-23T15:54:43;23.40;99.90
51765;DHT22;37835;53.256;6.456;2022-07-23T15:57:09;23.40;99.90
51765;DHT22;37835;53.256;6.456;2022-07-23T15:59:35;23.50;99.90
51765;DHT22;37835;53.256;6.456;2022-07-23T16:02:01;23.60;99.90
51765;DHT22;37835;53.256;6.456;2022-07-23T16:04:26;23.60;99.90
51765;DHT22;37835;53.256;6.456;2022-07-23T16:06:52;23.70;99.90
51765;DHT22;37835;53.256;6.456;2022-07-23T16:09:18;23.80;99.90
51765;DHT22;37835;53.256;6.456;2022-07-23T16:11:43;23.70;99.90
51765;DHT22;37835;53.256;6.456;2022-07-23T16:14:09;23.60;99.90
51765;DHT22;37835;53.256;6.456;2022-07-23T16:16:35;23.60;99.90
51765;DHT22;37835;53.256;6.456;2022-07-23T16:19:01;23.60;99.90
51765;DHT22;37835;53.256;6.456;2022-07-23T16:21:27;23.60;99.90